Time;durP1;ratioP1;P1;durP2;ratioP2;P2;SDS_P1;SDS_P2;PMS_P1;PMS_P2;Temp;Humidity;BMP_temperature;BMP_pressure;BME280_temperature;BME280_humidity;BME280_pressure;Samples;Min_cycle;Max_cycle;Signal;HPM_P1;HPM_P2
2023/07/03 00:02:17;;;;;;;5.07;3.15;;;;;;;15.84;57.29;100155.16;4864365;29;20067;-82
2023/07/03 00:04:45;;;;;;;8.30;3.22;;;;;;;15.84;57.20;100138.47;4863357;29;20074;-81
2023/07/03 00:07:14;;;;;;;8.50;3.38;;;;;;;15.81;57.08;100141.22;4859929;29;20512;-80
2023/07/03 00:09:40;;;;;;;10.40;4.15;;;;;;;15.82;57.01;100143.78;4864201;29;20072;-82
2023/07/03 00:12:08;;;;;;;5.22;3.13;;;;;;;15.82;57.34;100148.22;4859594;29;20048;-80
2023/07/03 00:14:35;;;;;;;7.28;3.50;;;;;;;15.83;57.20;100139.41;4863453;29;20060;-87
2023/07/03 00:17:01;;;;;;;5.75;3.38;;;;;;;15.84;56.88;100141.13;4863345;29;20037;-79
2023/07/03 00:19:30;;;;;;;9.35;3.85;;;;;;;15.85;56.77;100142.81;4847425;29;20093;-81
2023/07/03 00:22:00;;;;;;;6.00;2.42;;;;;;;15.82;56.71;100138.50;4865017;29;20057;-79
2023/07/03 00:24:29;;;;;;;9.48;3.97;;;;;;;15.83;56.87;100128.84;4863699;29;20049;-80
2023/07/03 00:26:56;;;;;;;6.45;3.75;;;;;;;15.82;56.95;100135.03;4869947;29;20044;-83
2023/07/03 00:29:23;;;;;;;8.63;3.85;;;;;;;15.79;57.44;100132.50;4856404;29;20060;-81
2023/07/03 00:31:50;;;;;;;4.57;2.83;;;;;;;15.71;57.41;100130.16;4862491;29;20044;-80
2023/07/03 00:34:16;;;;;;;5.60;3.28;;;;;;;15.64;57.54;100129.50;4872899;29;20037;-85
2023/07/03 00:36:43;;;;;;;4.32;3.15;;;;;;;15.65;57.59;100122.47;4866178;29;20127;-81
2023/07/03 00:39:10;;;;;;;5.25;3.00;;;;;;;15.66;57.48;100122.41;4861635;29;20473;-79
2023/07/03 00:41:36;;;;;;;5.72;3.10;;;;;;;15.66;57.60;100122.41;4848682;29;20109;-81
2023/07/03 00:44:03;;;;;;;8.05;3.67;;;;;;;15.64;57.93;100126.84;4861119;29;20536;-80
2023/07/03 00:46:29;;;;;;;6.38;3.75;;;;;;;15.61;57.99;100134.91;4847097;29;20041;-81
2023/07/03 00:48:56;;;;;;;5.28;3.38;;;;;;;15.61;58.10;100134.91;4864985;29;20045;-79
2023/07/03 00:51:22;;;;;;;6.05;3.53;;;;;;;15.56;57.83;100126.31;4864805;29;20043;-79
2023/07/03 00:53:48;;;;;;;6.45;3.83;;;;;;;15.48;58.59;100126.59;4849207;29;20132;-82
2023/07/03 00:56:15;;;;;;;7.53;3.55;;;;;;;15.44;58.50;100125.00;4857231;29;20097;-82
2023/07/03 00:58:41;;;;;;;5.70;3.88;;;;;;;15.38;59.19;100127.84;4866499;29;20429;-80
2023/07/03 01:01:26;;;;;;;8.27;3.38;;;;;;;15.33;59.69;100121.88;4843746;29;20048;-80
2023/07/03 01:04:04;;;;;;;5.50;3.17;;;;;;;15.25;59.67;100124.81;4860142;29;20045;-80
2023/07/03 01:06:42;;;;;;;5.05;3.38;;;;;;;15.14;60.16;100117.28;4865891;29;20053;-80
2023/07/03 01:09:12;;;;;;;9.45;3.75;;;;;;;15.05;60.70;100122.91;4862659;29;20044;-80
2023/07/03 01:11:39;;;;;;;9.20;3.45;;;;;;;14.95;61.25;100121.50;4865837;29;20572;-81
2023/07/03 01:14:08;;;;;;;5.45;3.10;;;;;;;14.85;61.89;100124.47;4861581;29;20056;-80
2023/07/03 01:16:36;;;;;;;8.38;3.88;;;;;;;14.87;61.90;100121.78;4861143;29;20045;-80
2023/07/03 01:19:03;;;;;;;4.57;3.13;;;;;;;14.95;61.74;100127.63;4862843;29;20919;-82
2023/07/03 01:22:24;;;;;;;8.30;4.10;;;;;;;15.07;62.14;100120.22;4864532;29;20045;-80
2023/07/03 01:24:57;;;;;;;6.60;3.22;;;;;;;15.16;61.21;100135.69;4855741;29;20124;-80
2023/07/03 01:27:29;;;;;;;9.23;4.07;;;;;;;15.22;61.17;100117.03;4855204;29;20100;-81
2023/07/03 01:29:57;;;;;;;6.45;3.78;;;;;;;15.23;61.13;100113.47;4847854;29;20104;-80
2023/07/03 01:32:29;;;;;;;9.02;4.00;;;;;;;15.24;61.37;100111.69;4859869;29;20091;-84
2023/07/03 01:34:57;;;;;;;8.07;4.07;;;;;;;15.20;61.39;100110.94;4865143;29;20156;-83
2023/07/03 01:37:27;;;;;;;6.45;3.95;;;;;;;15.15;61.85;100105.00;4861156;29;20044;-85
2023/07/03 01:39:55;;;;;;;9.73;4.18;;;;;;;15.05;62.12;100113.22;4860744;29;20043;-80
2023/07/03 01:42:25;;;;;;;6.82;3.75;;;;;;;14.97;62.76;100096.81;4878284;29;20060;-80
2023/07/03 01:44:51;;;;;;;7.68;3.83;;;;;;;14.92;63.33;100109.31;4859938;29;20164;-82
2023/07/03 01:47:18;;;;;;;9.00;4.60;;;;;;;14.95;63.50;100101.28;4874706;29;20046;-80
2023/07/03 01:49:45;;;;;;;12.15;3.45;;;;;;;14.98;63.76;100106.47;4860142;29;20175;-83
2023/07/03 01:52:22;;;;;;;13.73;3.65;;;;;;;15.04;63.55;100097.47;4859019;29;20476;-82
2023/07/03 01:55:09;;;;;;;10.23;4.18;;;;;;;15.07;63.72;100096.50;4854768;29;20047;-83
2023/07/03 01:57:49;;;;;;;10.75;4.15;;;;;;;15.17;63.87;100097.88;4850145;29;20564;-84
2023/07/03 02:00:28;;;;;;;10.68;3.72;;;;;;;15.22;63.42;100096.78;4867996;29;20061;-80
2023/07/03 02:02:57;;;;;;;10.52;3.75;;;;;;;15.26;63.28;100096.69;4858174;29;20072;-80
2023/07/03 02:05:29;;;;;;;7.70;3.58;;;;;;;15.28;63.73;100092.19;4850447;29;20540;-87
2023/07/03 02:08:00;;;;;;;8.40;4.13;;;;;;;15.26;64.17;100086.13;4866786;29;20055;-80
2023/07/03 02:10:27;;;;;;;9.70;4.05;;;;;;;15.30;63.97;100091.22;4857554;29;20060;-80
2023/07/03 02:12:54;;;;;;;9.40;3.92;;;;;;;15.29;64.43;100097.44;4862291;29;20044;-81
2023/07/03 02:15:20;;;;;;;7.15;3.47;;;;;;;15.26;65.06;100100.16;4866883;29;20040;-82
2023/07/03 02:17:47;;;;;;;8.55;4.43;;;;;;;15.20;64.85;100098.63;4879919;29;20064;-84
2023/07/03 02:20:13;;;;;;;13.40;4.10;;;;;;;15.16;65.72;100097.03;4833189;29;20052;-83
2023/07/03 02:22:44;;;;;;;9.68;3.95;;;;;;;15.10;65.86;100093.75;4839541;29;20135;-82
2023/07/03 02:25:11;;;;;;;10.75;4.45;;;;;;;15.07;66.40;100100.00;4854652;29;20057;-80
2023/07/03 02:27:40;;;;;;;10.40;4.15;;;;;;;15.13;66.52;100099.75;4860061;29;20251;-81
2023/07/03 02:30:07;;;;;;;10.82;5.40;;;;;;;15.19;66.73;100099.53;4869578;29;20041;-83
2023/07/03 02:32:36;;;;;;;10.38;4.65;;;;;;;15.24;66.93;100098.50;4861844;29;20057;-84
2023/07/03 02:35:03;;;;;;;10.00;4.97;;;;;;;15.27;66.90;100098.41;4852724;29;20049;-80
2023/07/03 02:37:30;;;;;;;11.10;4.28;;;;;;;15.25;67.04;100098.44;4864309;29;20045;-80
2023/07/03 02:39:57;;;;;;;8.95;3.58;;;;;;;15.26;67.02;100105.44;4858671;29;20034;-80
2023/07/03 02:42:23;;;;;;;9.48;4.60;;;;;;;15.23;67.71;100092.38;4860001;29;20850;-80
2023/07/03 02:44:50;;;;;;;13.90;5.43;;;;;;;15.21;68.41;100079.25;4867700;29;20045;-80
2023/07/03 02:47:16;;;;;;;11.73;4.50;;;;;;;15.14;68.78;100083.03;4864198;29;20125;-80
2023/07/03 02:49:43;;;;;;;13.52;3.50;;;;;;;15.13;69.35;100083.94;4869143;29;20047;-81
2023/07/03 02:52:09;;;;;;;8.43;4.50;;;;;;;14.96;70.03;100075.81;4849667;29;20143;-83
2023/07/03 02:54:36;;;;;;;9.27;4.70;;;;;;;14.91;70.77;100086.50;4862502;29;20496;-82
2023/07/03 02:57:03;;;;;;;9.75;4.30;;;;;;;14.82;71.47;100085.06;4846745;29;20600;-80
2023/07/03 02:59:30;;;;;;;8.38;3.95;;;;;;;14.84;71.79;100085.00;4851314;29;20049;-83
2023/07/03 03:01:56;;;;;;;12.93;5.00;;;;;;;14.92;71.58;100082.94;4858487;29;20041;-82
2023/07/03 03:04:22;;;;;;;10.57;4.05;;;;;;;15.06;71.09;100087.72;4866588;29;20120;-80
2023/07/03 03:06:49;;;;;;;10.63;4.88;;;;;;;15.12;71.13;100087.50;4860606;29;20044;-83
2023/07/03 03:09:15;;;;;;;11.75;4.40;;;;;;;15.21;70.83;100089.81;4865527;29;20041;-80
2023/07/03 03:11:42;;;;;;;9.68;3.95;;;;;;;15.26;70.64;100086.13;4853828;29;20041;-80
2023/07/03 03:14:08;;;;;;;14.45;4.70;;;;;;;15.30;71.04;100080.66;4862630;29;20392;-79
2023/07/03 03:16:36;;;;;;;11.95;5.03;;;;;;;15.29;70.72;100081.59;4847260;29;20491;-80
2023/07/03 03:19:03;;;;;;;10.77;4.25;;;;;;;15.32;70.95;100084.13;4857966;29;20041;-83
2023/07/03 03:21:29;;;;;;;11.50;3.92;;;;;;;15.27;71.33;100079.94;4850583;29;20480;-78
2023/07/03 03:23:56;;;;;;;10.82;4.57;;;;;;;15.21;71.74;100083.66;4881677;29;20064;-82
2023/07/03 03:26:22;;;;;;;14.50;5.13;;;;;;;15.18;72.37;100076.72;4847859;29;20057;-82
2023/07/03 03:28:49;;;;;;;15.40;5.30;;;;;;;15.18;72.42;100086.41;4860708;29;20041;-78
2023/07/03 03:31:15;;;;;;;14.13;4.68;;;;;;;15.07;72.92;100085.94;4887947;29;20524;-84
2023/07/03 03:33:42;;;;;;;12.10;4.35;;;;;;;15.02;72.83;100081.69;4879546;29;20053;-79
2023/07/03 03:36:08;;;;;;;14.32;5.07;;;;;;;14.90;74.57;100087.44;4879474;29;20049;-81
2023/07/03 03:38:34;;;;;;;11.90;5.25;;;;;;;14.85;74.56;100084.94;4860878;29;20050;-81
2023/07/03 03:41:04;;;;;;;11.32;5.28;;;;;;;14.80;75.13;100088.69;4861234;29;20041;-79
2023/07/03 03:43:31;;;;;;;17.15;4.38;;;;;;;14.74;75.48;100092.38;4864498;29;20917;-84
2023/07/03 03:46:01;;;;;;;8.57;3.78;;;;;;;14.68;75.69;100088.19;4861796;29;20101;-80
2023/07/03 03:48:30;;;;;;;15.52;4.72;;;;;;;14.60;76.57;100089.31;4863987;29;20400;-79
2023/07/03 03:50:57;;;;;;;14.85;4.70;;;;;;;14.63;76.36;100089.25;4864234;29;20045;-80
2023/07/03 03:53:24;;;;;;;11.00;4.63;;;;;;;14.55;76.63;100081.59;4850222;29;20113;-83
2023/07/03 03:55:52;;;;;;;14.93;4.68;;;;;;;14.60;77.25;100086.69;4863477;29;20036;-81
2023/07/03 03:58:21;;;;;;;15.43;6.28;;;;;;;14.60;77.12;100087.56;4847872;29;20415;-79
2023/07/03 04:00:50;;;;;;;12.55;4.38;;;;;;;14.61;77.19;100088.41;4867015;29;20041;-79
2023/07/03 04:03:17;;;;;;;9.95;4.93;;;;;;;14.56;77.42;100078.91;4861334;29;20096;-82
2023/07/03 04:05:44;;;;;;;13.45;5.13;;;;;;;14.56;78.37;100085.94;4876782;29;20059;-81
2023/07/03 04:08:11;;;;;;;15.43;5.35;;;;;;;14.62;77.82;100080.47;4848192;29;20163;-79
2023/07/03 04:10:38;;;;;;;15.93;5.10;;;;;;;14.71;77.72;100079.31;4862377;29;20064;-80
2023/07/03 04:13:04;;;;;;;7.38;3.90;;;;;;;14.80;77.56;100086.03;4862115;29;20601;-83
2023/07/03 04:15:34;;;;;;;18.48;6.63;;;;;;;14.91;77.14;100080.38;4879977;29;20044;-80
2023/07/03 04:18:01;;;;;;;16.80;5.35;;;;;;;15.03;76.90;100086.06;4864497;29;20047;-79
2023/07/03 04:20:27;;;;;;;10.30;5.20;;;;;;;15.08;76.38;100090.31;4869391;29;20145;-82
2023/07/03 04:22:54;;;;;;;11.98;4.57;;;;;;;15.11;76.29;100087.53;4858136;29;20053;-80
2023/07/03 04:25:21;;;;;;;11.35;5.40;;;;;;;15.12;76.43;100079.59;4860417;29;20045;-78
2023/07/03 04:27:48;;;;;;;11.35;5.15;;;;;;;15.13;76.67;100088.38;4859980;29;20033;-80
2023/07/03 04:30:14;;;;;;;10.52;4.30;;;;;;;15.10;76.98;100076.16;4874713;29;20037;-84
2023/07/03 04:32:54;;;;;;;12.50;5.07;;;;;;;15.05;77.28;100078.94;4866248;29;20037;-80
2023/07/03 04:35:23;;;;;;;12.23;5.15;;;;;;;15.01;77.39;100077.34;4871930;29;20050;-80
2023/07/03 04:37:50;;;;;;;10.85;5.18;;;;;;;15.01;77.57;100084.41;4867862;29;20106;-80
2023/07/03 04:40:18;;;;;;;12.32;4.38;;;;;;;14.96;77.52;100091.63;4859940;29;20129;-79
2023/07/03 04:42:46;;;;;;;10.23;4.50;;;;;;;14.91;77.71;100075.09;4877125;29;20052;-82
2023/07/03 04:45:13;;;;;;;12.88;4.68;;;;;;;14.85;78.22;100066.50;4837299;29;20055;-82
2023/07/03 04:47:42;;;;;;;10.60;4.68;;;;;;;14.82;78.47;100069.25;4850552;29;20097;-86
2023/07/03 04:50:14;;;;;;;11.55;4.85;;;;;;;14.77;78.61;100065.06;4858015;29;20075;-79
2023/07/03 04:52:41;;;;;;;11.50;4.70;;;;;;;14.74;78.79;100071.28;4852302;29;20040;-79
2023/07/03 04:55:11;;;;;;;10.90;4.50;;;;;;;14.79;78.70;100069.34;4856952;29;20437;-79
2023/07/03 04:57:38;;;;;;;16.52;5.45;;;;;;;14.85;78.10;100069.13;4857908;29;20045;-79
2023/07/03 05:00:17;;;;;;;14.27;5.22;;;;;;;14.86;77.77;100081.41;4844667;29;20060;-81
2023/07/03 05:02:45;;;;;;;15.90;4.53;;;;;;;14.93;77.51;100076.78;4846166;29;20043;-79
2023/07/03 05:05:14;;;;;;;15.25;4.30;;;;;;;15.03;77.38;100083.44;4860419;29;20033;-84
2023/07/03 05:07:41;;;;;;;11.40;4.70;;;;;;;15.10;77.17;100084.06;4856539;29;20045;-85
2023/07/03 05:10:10;;;;;;;14.50;4.43;;;;;;;15.24;76.55;100073.00;4859719;29;20037;-82
2023/07/03 05:12:37;;;;;;;14.88;4.22;;;;;;;15.44;75.44;100074.88;4852661;29;20045;-82
2023/07/03 05:15:08;;;;;;;11.10;4.43;;;;;;;15.57;74.38;100079.69;4849508;29;20049;-81
2023/07/03 05:17:38;;;;;;;10.70;4.45;;;;;;;15.73;73.64;100082.59;4851919;29;20758;-80
2023/07/03 05:20:11;;;;;;;10.60;4.35;;;;;;;15.86;72.81;100068.00;4873697;24;20489;-79
2023/07/03 05:22:43;;;;;;;11.05;4.32;;;;;;;15.93;71.84;100077.41;4861406;29;20041;-79
2023/07/03 05:25:13;;;;;;;16.17;4.03;;;;;;;15.97;71.57;100093.94;4881205;29;20044;-80
2023/07/03 05:27:40;;;;;;;7.78;4.78;;;;;;;15.97;71.46;100096.59;4877329;29;20051;-80
2023/07/03 05:30:08;;;;;;;12.13;4.00;;;;;;;16.01;70.74;100098.22;4878648;29;20101;-80
2023/07/03 05:32:35;;;;;;;14.50;4.68;;;;;;;16.04;70.43;100116.56;4862883;29;20041;-81
2023/07/03 05:35:04;;;;;;;17.77;4.28;;;;;;;16.08;70.37;100126.06;4885347;29;20048;-79
2023/07/03 05:37:31;;;;;;;10.60;4.60;;;;;;;16.07;70.07;100129.63;4878799;29;20045;-78
2023/07/03 05:39:58;;;;;;;9.98;3.75;;;;;;;16.04;70.35;100130.59;4877726;29;20045;-79
2023/07/03 05:42:26;;;;;;;10.27;3.92;;;;;;;16.02;70.54;100127.19;4877866;29;20048;-78
2023/07/03 05:44:52;;;;;;;16.15;4.00;;;;;;;16.02;70.54;100116.63;4862689;29;20037;-79
2023/07/03 05:47:19;;;;;;;10.20;4.18;;;;;;;16.12;70.07;100122.38;4876465;29;20052;-79
2023/07/03 05:49:47;;;;;;;13.05;4.20;;;;;;;16.10;68.95;100118.06;4882935;29;20048;-84
2023/07/03 05:52:14;;;;;;;11.52;3.90;;;;;;;16.10;69.18;100115.44;4879317;29;20124;-85
2023/07/03 05:54:40;;;;;;;13.60;4.68;;;;;;;16.12;69.20;100111.81;4864311;29;20089;-80
2023/07/03 05:57:11;;;;;;;16.30;4.85;;;;;;;16.20;69.10;100112.38;4879481;29;20045;-79
2023/07/03 05:59:40;;;;;;;18.10;5.05;;;;;;;16.25;68.43;100125.38;4893903;29;20092;-82
2023/07/03 06:02:11;;;;;;;17.23;4.75;;;;;;;16.24;68.09;100128.94;4891274;29;20045;-80
2023/07/03 06:04:38;;;;;;;14.90;4.15;;;;;;;16.25;68.22;100130.66;4880519;29;20101;-82
2023/07/03 06:07:05;;;;;;;11.43;3.63;;;;;;;16.31;67.95;100141.00;4877784;29;20041;-81
2023/07/03 06:09:33;;;;;;;14.60;5.60;;;;;;;16.40;68.11;100142.41;4878655;29;20044;-79
2023/07/03 06:12:09;;;;;;;14.13;4.32;;;;;;;16.49;67.04;100154.34;4878246;29;20040;-78
2023/07/03 06:14:39;;;;;;;10.40;3.15;;;;;;;16.51;66.72;100150.72;4864989;29;20049;-84
2023/07/03 06:17:06;;;;;;;9.68;3.15;;;;;;;16.46;66.29;100152.69;4884660;29;20040;-81
2023/07/03 06:19:32;;;;;;;10.60;3.45;;;;;;;16.44;65.89;100151.03;4865767;29;20052;-81
2023/07/03 06:21:59;;;;;;;7.82;3.33;;;;;;;16.38;66.79;100157.44;4874300;29;20065;-82
2023/07/03 06:24:26;;;;;;;14.40;3.92;;;;;;;16.36;66.09;100139.00;4863476;29;20060;-80
2023/07/03 06:26:53;;;;;;;14.05;3.85;;;;;;;16.33;66.25;100154.13;4877842;29;20041;-80
2023/07/03 06:29:20;;;;;;;10.85;4.15;;;;;;;16.40;66.36;100163.53;4876879;29;20159;-79
2023/07/03 06:31:47;;;;;;;20.27;3.95;;;;;;;16.45;66.02;100161.56;4862211;29;20057;-81
2023/07/03 06:34:16;;;;;;;8.48;3.30;;;;;;;16.35;66.09;100165.50;4872642;29;20385;-79
2023/07/03 06:36:42;;;;;;;12.10;4.43;;;;;;;16.37;66.61;100164.50;4878097;29;20106;-80
2023/07/03 06:39:10;;;;;;;11.75;3.65;;;;;;;16.44;66.57;100164.25;4877928;29;20048;-80
2023/07/03 06:41:37;;;;;;;10.27;3.10;;;;;;;16.30;66.41;100157.75;4889124;29;20040;-80
2023/07/03 06:44:06;;;;;;;9.10;3.53;;;;;;;16.18;66.83;100166.19;4890610;29;20040;-79
2023/07/03 06:46:33;;;;;;;16.77;4.18;;;;;;;16.15;67.40;100163.66;4868544;29;20087;-79
2023/07/03 06:48:59;;;;;;;12.18;3.08;;;;;;;16.18;67.42;100177.59;4879134;29;20041;-80
2023/07/03 06:51:26;;;;;;;11.32;3.92;;;;;;;16.21;67.67;100179.25;4883540;29;20045;-80
2023/07/03 06:53:53;;;;;;;16.02;3.83;;;;;;;16.19;67.83;100181.09;4873666;29;20040;-80
2023/07/03 06:56:22;;;;;;;18.77;3.78;;;;;;;16.24;67.75;100180.91;4880323;29;20113;-80
2023/07/03 06:58:50;;;;;;;17.98;4.40;;;;;;;16.27;67.92;100180.78;4890218;29;20152;-80
2023/07/03 07:01:20;;;;;;;7.90;3.28;;;;;;;16.34;67.97;100187.53;4877186;29;20132;-82
2023/07/03 07:03:46;;;;;;;10.43;3.22;;;;;;;16.44;67.07;100186.25;4883214;29;20037;-81
2023/07/03 07:06:23;;;;;;;13.48;4.43;;;;;;;16.52;66.89;100183.28;4883684;29;20041;-80
2023/07/03 07:08:51;;;;;;;12.90;4.22;;;;;;;16.66;65.72;100177.41;4886227;29;20065;-81
2023/07/03 07:11:25;;;;;;;14.63;3.78;;;;;;;16.65;65.56;100175.72;4875057;29;20052;-83
2023/07/03 07:13:55;;;;;;;18.60;4.65;;;;;;;16.53;66.15;100188.50;4882117;29;20472;-86
2023/07/03 07:16:25;;;;;;;12.13;3.67;;;;;;;16.67;65.81;100189.72;4887145;29;20049;-83
2023/07/03 07:18:56;;;;;;;15.07;3.72;;;;;;;16.77;65.78;100185.75;4864588;29;20044;-81
2023/07/03 07:21:23;;;;;;;11.02;4.10;;;;;;;16.92;65.13;100178.13;4863400;29;20144;-80
2023/07/03 07:24:00;;;;;;;11.43;3.15;;;;;;;16.94;65.53;100184.22;4885835;29;20036;-84
2023/07/03 07:26:33;;;;;;;12.07;4.32;;;;;;;17.04;64.97;100177.63;4880356;29;20053;-79
2023/07/03 07:29:01;;;;;;;10.43;3.53;;;;;;;17.03;65.47;100181.19;4879624;29;20048;-80
2023/07/03 07:31:28;;;;;;;9.95;3.17;;;;;;;16.98;65.07;100176.09;4883370;29;20033;-81
2023/07/03 07:33:55;;;;;;;15.52;3.97;;;;;;;16.83;66.15;100174.94;4859918;29;20077;-80
2023/07/03 07:36:24;;;;;;;14.73;3.63;;;;;;;16.67;67.12;100181.78;4886362;29;20045;-80
2023/07/03 07:38:53;;;;;;;11.93;4.13;;;;;;;16.59;67.83;100182.09;4885059;29;20037;-79
2023/07/03 07:41:20;;;;;;;18.02;4.20;;;;;;;16.47;68.97;100183.47;4862716;29;20396;-79
2023/07/03 07:43:48;;;;;;;12.82;3.67;;;;;;;16.43;69.64;100183.69;4881658;29;20037;-79
2023/07/03 07:46:15;;;;;;;12.18;4.13;;;;;;;16.39;69.71;100180.28;4878627;29;20691;-79
2023/07/03 07:48:42;;;;;;;12.60;4.78;;;;;;;16.45;69.97;100195.03;4871638;29;20044;-79
2023/07/03 07:51:11;;;;;;;15.18;5.15;;;;;;;16.54;69.24;100187.59;4876671;29;20048;-83
2023/07/03 07:53:39;;;;;;;14.98;5.25;;;;;;;16.44;69.76;100199.47;4879162;29;20048;-79
2023/07/03 07:56:08;;;;;;;12.80;5.07;;;;;;;16.33;70.46;100199.03;4879717;29;20044;-84
2023/07/03 07:58:35;;;;;;;14.70;4.20;;;;;;;16.22;70.96;100194.19;4888264;29;20045;-83
2023/07/03 08:01:03;;;;;;;15.20;4.70;;;;;;;16.13;71.74;100189.28;4875161;29;20045;-80
2023/07/03 08:03:29;;;;;;;16.15;4.90;;;;;;;16.23;71.70;100201.19;4898006;29;20051;-79
2023/07/03 08:06:05;;;;;;;13.45;4.50;;;;;;;16.36;70.75;100191.84;4882057;29;20393;-79
2023/07/03 08:08:35;;;;;;;16.55;5.07;;;;;;;16.40;70.99;100200.50;4879576;29;20040;-79
2023/07/03 08:11:04;;;;;;;15.48;5.03;;;;;;;16.62;69.79;100189.03;4866561;29;20041;-81
2023/07/03 08:13:33;;;;;;;13.02;5.00;;;;;;;16.67;69.79;100198.53;4863988;29;20056;-78
2023/07/03 08:16:00;;;;;;;11.38;4.55;;;;;;;16.84;69.08;100194.28;4880464;29;20045;-80
2023/07/03 08:18:27;;;;;;;20.95;5.30;;;;;;;16.83;68.84;100197.84;4873424;29;20072;-80
2023/07/03 08:20:54;;;;;;;16.02;4.80;;;;;;;16.87;68.81;100199.47;4889535;29;20048;-80
2023/07/03 08:23:21;;;;;;;11.60;4.72;;;;;;;16.87;68.93;100202.97;4888561;29;20377;-79
2023/07/03 08:25:53;;;;;;;12.93;4.68;;;;;;;16.97;69.11;100207.88;4873190;29;20068;-80
2023/07/03 08:28:20;;;;;;;13.52;4.70;;;;;;;17.15;67.79;100200.94;4883251;29;20044;-80
2023/07/03 08:30:46;;;;;;;14.27;5.13;;;;;;;17.39;66.85;100198.13;4887470;29;20047;-81
2023/07/03 08:33:14;;;;;;;14.07;4.93;;;;;;;17.46;66.32;100212.81;4876528;29;20044;-79
2023/07/03 08:35:41;;;;;;;15.73;5.45;;;;;;;17.63;66.01;100217.34;4893754;29;20051;-80
2023/07/03 08:38:10;;;;;;;13.90;4.72;;;;;;;17.82;64.41;100214.72;4901868;29;20080;-85
2023/07/03 08:40:37;;;;;;;21.55;6.45;;;;;;;17.93;64.24;100212.47;4901704;29;20067;-78
2023/07/03 08:43:06;;;;;;;14.70;5.18;;;;;;;18.05;63.50;100223.41;4867602;29;20135;-79
2023/07/03 08:45:42;;;;;;;12.13;4.70;;;;;;;18.44;61.50;100207.38;4882938;29;20120;-79
2023/07/03 08:48:14;;;;;;;18.70;5.15;;;;;;;18.51;61.30;100207.94;4879892;29;20028;-80
2023/07/03 08:50:55;;;;;;;15.20;5.60;;;;;;;18.54;60.96;100213.09;4886701;29;20052;-78
2023/07/03 08:53:26;;;;;;;13.02;4.85;;;;;;;18.65;60.54;100208.13;4863565;29;20057;-80
2023/07/03 08:56:22;;;;;;;12.43;4.80;;;;;;;18.65;61.53;100229.31;4863889;29;20048;-80
2023/07/03 08:58:55;;;;;;;14.18;5.05;;;;;;;18.37;61.85;100223.66;4881462;29;20041;-81
2023/07/03 09:01:29;;;;;;;10.90;5.33;;;;;;;18.11;62.64;100212.53;4859439;29;20052;-79
2023/07/03 09:04:28;;;;;;;8.38;4.45;;;;;;;17.84;63.48;100216.34;4881870;29;20060;-79
2023/07/03 09:07:06;;;;;;;13.48;5.22;;;;;;;17.63;65.43;100217.34;4878696;29;20127;-81
2023/07/03 09:09:53;;;;;;;13.82;5.72;;;;;;;17.72;65.31;100229.28;4882212;29;20049;-79
2023/07/03 09:12:32;;;;;;;13.60;5.22;;;;;;;17.84;64.06;100224.28;4883515;29;20052;-80
2023/07/03 09:15:21;;;;;;;20.13;4.97;;;;;;;18.07;63.31;100227.72;4886165;29;20044;-82
2023/07/03 09:17:48;;;;;;;11.63;5.03;;;;;;;18.48;61.72;100239.91;4897147;29;20115;-80
2023/07/03 09:20:16;;;;;;;10.63;4.40;;;;;;;18.98;57.88;100220.66;4883234;29;20143;-79
2023/07/03 09:22:54;;;;;;;16.27;4.40;;;;;;;19.66;56.09;100230.38;4889658;29;20100;-80
2023/07/03 09:25:27;;;;;;;8.73;3.95;;;;;;;20.56;52.92;100229.91;4871364;29;20047;-81
2023/07/03 09:27:55;;;;;;;;;;;;;;;20.69;51.28;100228.28;4871404;29;20950;-78
2023/07/03 09:30:22;;;;;;;16.05;4.72;;;;;;;20.87;50.93;100228.16;4868047;29;19971;-79
2023/07/03 09:32:48;;;;;;;12.85;4.90;;;;;;;21.00;50.05;100221.16;4894321;29;20488;-80
2023/07/03 09:35:21;;;;;;;13.52;4.85;;;;;;;20.62;50.99;100217.16;4892527;29;20143;-81
2023/07/03 09:37:52;;;;;;;14.38;5.25;;;;;;;20.48;51.25;100219.72;4885155;29;20039;-80
2023/07/03 09:40:25;;;;;;;10.75;4.38;;;;;;;21.25;48.36;100225.91;4911234;29;20041;-78
2023/07/03 09:42:51;;;;;;;9.83;4.40;;;;;;;22.19;46.37;100218.34;4880853;29;20040;-79
2023/07/03 09:45:22;;;;;;;14.32;3.90;;;;;;;22.61;45.60;100225.38;4900769;29;20046;-78
2023/07/03 09:47:57;;;;;;;14.52;3.90;;;;;;;22.38;45.55;100218.88;4904296;29;20088;-80
2023/07/03 09:50:37;;;;;;;12.88;4.35;;;;;;;22.09;45.28;100216.28;4885955;29;20047;-81
2023/07/03 09:53:06;;;;;;;11.52;3.67;;;;;;;21.29;47.19;100231.91;4872472;29;20044;-80
2023/07/03 09:55:33;;;;;;;16.65;4.07;;;;;;;20.71;49.15;100228.22;4880581;29;20040;-79
2023/07/03 09:57:59;;;;;;;11.52;4.07;;;;;;;20.19;50.82;100227.56;4881248;29;20071;-79
2023/07/03 10:00:27;;;;;;;17.33;4.70;;;;;;;19.59;53.04;100238.75;4897926;29;20036;-81
2023/07/03 10:02:56;;;;;;;10.45;3.88;;;;;;;19.23;54.65;100234.44;4880718;29;20786;-79
2023/07/03 10:05:33;;;;;;;11.43;4.15;;;;;;;18.91;53.32;100237.81;4871693;29;20055;-79
2023/07/03 10:08:07;;;;;;;9.80;3.35;;;;;;;18.51;51.08;100234.44;4880111;29;20119;-79
2023/07/03 10:10:34;;;;;;;10.93;4.15;;;;;;;18.32;53.54;100240.66;4876941;29;20032;-80
2023/07/03 10:13:24;;;;;;;11.13;3.65;;;;;;;18.16;55.13;100248.47;4868075;29;20052;-84
2023/07/03 10:15:54;;;;;;;16.42;3.90;;;;;;;18.08;56.68;100249.75;4889860;29;20037;-80
2023/07/03 10:18:35;;;;;;;8.73;3.92;;;;;;;17.94;58.34;100258.31;4885294;29;20039;-79
2023/07/03 10:21:12;;;;;;;17.48;5.10;;;;;;;17.79;60.90;100260.72;4889740;29;20124;-79
2023/07/03 10:23:41;;;;;;;15.38;4.40;;;;;;;17.69;62.14;100265.59;4879578;29;20104;-78
2023/07/03 10:26:17;;;;;;;12.25;3.60;;;;;;;17.55;62.21;100270.63;4880523;29;21843;-80
2023/07/03 10:28:49;;;;;;;9.10;4.20;;;;;;;17.55;61.81;100267.97;4862010;29;20037;-79
2023/07/03 10:31:27;;;;;;;13.25;3.97;;;;;;;17.63;59.64;100271.13;4893223;29;20052;-78
2023/07/03 10:34:02;;;;;;;15.45;4.40;;;;;;;17.77;59.46;100275.81;4880172;29;20044;-78
2023/07/03 10:36:32;;;;;;;8.98;3.42;;;;;;;17.95;59.17;100283.88;4865601;29;20081;-78
2023/07/03 10:39:11;;;;;;;13.07;3.72;;;;;;;18.16;59.07;100277.59;4884144;29;20075;-80
2023/07/03 10:42:06;;;;;;;15.07;4.47;;;;;;;18.93;58.12;100281.03;4892732;29;20041;-80
2023/07/03 10:44:38;;;;;;;9.25;3.83;;;;;;;19.76;56.10;100277.69;4864392;29;20048;-79
2023/07/03 10:47:20;;;;;;;9.15;3.40;;;;;;;21.26;50.67;100266.66;4888175;29;20054;-79
2023/07/03 10:49:47;;;;;;;11.40;3.45;;;;;;;20.82;51.56;100279.00;4874663;29;20048;-78
2023/07/03 10:52:54;;;;;;;7.97;3.47;;;;;;;19.56;54.56;100254.88;4880404;29;20079;-78
2023/07/03 10:55:29;;;;;;;17.38;4.05;;;;;;;18.67;58.69;100269.88;4867719;29;20045;-82
2023/07/03 10:58:31;;;;;;;10.30;3.90;;;;;;;18.43;59.54;100279.03;4882718;29;20587;-78
2023/07/03 11:01:13;;;;;;;6.85;3.88;;;;;;;18.33;59.99;100284.75;4858915;29;20041;-79
2023/07/03 11:03:55;;;;;;;9.50;3.50;;;;;;;18.71;58.84;100277.69;4871134;29;20677;-77
2023/07/03 11:06:31;;;;;;;13.90;4.00;;;;;;;18.97;56.79;100265.84;4899476;29;20041;-78
2023/07/03 11:09:21;;;;;;;9.52;3.88;;;;;;;19.27;56.20;100270.53;4873310;29;20040;-79
2023/07/03 11:12:10;;;;;;;10.82;3.60;;;;;;;20.29;52.41;100265.97;4846487;29;20089;-78
2023/07/03 11:15:07;;;;;;;10.23;3.45;;;;;;;22.17;47.54;100255.75;4879746;29;20656;-79
2023/07/03 11:17:50;;;;;;;6.78;3.25;;;;;;;23.72;42.44;100253.53;4865393;29;20037;-79
2023/07/03 11:20:35;;;;;;;7.95;3.05;;;;;;;23.98;41.39;100250.84;4881889;29;20068;-80
2023/07/03 11:23:55;;;;;;;8.63;3.55;;;;;;;25.32;39.31;100251.63;4877398;29;20044;-80
2023/07/03 11:26:43;;;;;;;8.13;3.38;;;;;;;24.97;38.37;100247.16;4883863;29;20067;-79
2023/07/03 11:29:11;;;;;;;4.70;2.80;;;;;;;23.45;40.65;100243.81;4880132;29;20047;-79
2023/07/03 11:31:42;;;;;;;15.52;3.25;;;;;;;22.46;43.02;100248.59;4885671;29;20043;-79
2023/07/03 11:34:12;;;;;;;12.13;3.30;;;;;;;21.98;44.33;100258.78;4887573;29;20093;-80
2023/07/03 11:36:51;;;;;;;9.43;3.45;;;;;;;21.46;44.71;100249.50;4885669;29;20055;-81